Capt E. Frank Thompson — WDG2784 — position and weather

sailwx.info

Track history (hours):
 
Tides and Currents Weather Stations Pressure Air Temp Water Temp Dewpoint Dewpoint Depression Visibility Wind Speed Wind Dir Waves Ship Positions

Capt E. Frank Thompson

Owner: Maine Dept. of Transportation/Ferry Service, Rockland, ME. More information available from US FCC via Universal Licensing System and Coast Guard Vessel Documentation Center.

Last reported at 2018-Feb-23 22:42 UTC. Time now 2018-Feb-24 00:41 UTC.
Position N 44°06' W 069°06'.

Length 47 m.

Type: Passenger vessel. MMSI: 367519240.

Date/timePositionNaut miles runAvg speedWind from/ knotsBaromVisibWave heightAir tempDewpointWater temp
2018-Feb-23 22:42N 44°06' W 069°06'1 6.9
2018-Feb-23 22:29N 44°06' W 069°04'612.0
2018-Feb-23 22:01N 44°05' W 068°57'5 9.9
2018-Feb-23 21:29N 44°03' W 068°50'0 0.0
2018-Feb-23 21:00N 44°03' W 068°50'4 8.1
2018-Feb-23 20:30N 44°04' W 068°55'612.0
2018-Feb-23 20:00N 44°06' W 069°03'2 4.4
2018-Feb-23 19:29N 44°06' W 069°06'1 1.4
2018-Feb-23 19:00N 44°06' W 069°06'612.3
2018-Feb-23 18:30N 44°05' W 068°57'510.9
2018-Feb-23 18:00N 44°03' W 068°50'0 0.0
2018-Feb-23 17:30N 44°03' W 068°50'0 0.0
2018-Feb-23 17:00N 44°03' W 068°50'1 1.8
2018-Feb-23 16:30N 44°03' W 068°52'611.6
2018-Feb-23 16:00N 44°05' W 068°59'611.6
2018-Feb-23 15:30N 44°06' W 069°06'0 0.0
2018-Feb-23 14:59N 44°06' W 069°06'4 9.0
2018-Feb-23 14:29N 44°06' W 069°00'611.5
2018-Feb-23 14:00N 44°03' W 068°53'2 3.9
2018-Feb-23 13:27N 44°03' W 068°50'1 1.6
2018-Feb-23 13:00N 44°03' W 068°51'611.7
2018-Feb-23 12:30N 44°05' W 068°59'611.5
2018-Feb-23 12:00N 44°06' W 069°06'0 0.0
2018-Feb-22 22:42N 44°06' W 069°06'1 5.7
2018-Feb-22 22:31N 44°06' W 069°05'611.9
2018-Feb-22 22:00N 44°05' W 068°57'510.3
2018-Feb-22 21:30N 44°03' W 068°50'0 0.0
2018-Feb-22 20:59N 44°03' W 068°50'510.6
2018-Feb-22 20:30N 44°05' W 068°57'612.4
2018-Feb-22 20:00N 44°06' W 069°05'1 2.1
2018-Feb-22 19:30N 44°06' W 069°06'1 1.7
2018-Feb-22 19:00N 44°06' W 069°05'612.2
2018-Feb-22 18:30N 44°05' W 068°57'5 3.0
2018-Feb-22 16:42N 44°03' W 068°50'2 9.6
2018-Feb-22 16:30N 44°03' W 068°53'611.5
2018-Feb-22 16:00N 44°06' W 068°60'5 9.1
2018-Feb-22 15:29N 44°06' W 069°06'0 0.0
2018-Feb-22 14:59N 44°06' W 069°06'4 8.0
2018-Feb-22 14:29N 44°06' W 069°01'612.3
2018-Feb-22 14:00N 44°04' W 068°53'2 2.3
2018-Feb-22 13:03N 44°02' W 068°51'113.6
2018-Feb-22 12:59N 44°03' W 068°52'611.8
2018-Feb-22 12:30N 44°05' W 068°59'511.0
2018-Feb-22 12:00N 44°06' W 069°06'0 0.1
2018-Feb-22 11:31N 44°06' W 069°06'0 0.0
2018-Feb-21 22:43N 44°06' W 069°06'2 8.1
2018-Feb-21 22:29N 44°06' W 069°04'611.4
2018-Feb-21 22:00N 44°05' W 068°56'5 4.1
2018-Feb-21 20:48N 44°02' W 068°51'411.9
2018-Feb-21 20:30N 44°04' W 068°55'612.3
2018-Feb-21 19:59N 44°06' W 069°03'2 4.6
2018-Feb-21 19:28N 44°06' W 069°06'1 3.2
2018-Feb-21 19:00N 44°06' W 069°04'611.8
2018-Feb-21 18:30N 44°05' W 068°56'5 7.3
2018-Feb-21 17:49N 44°03' W 068°50'0 0.0
2018-Feb-21 17:29N 44°03' W 068°50'0 0.0
2018-Feb-21 17:00N 44°03' W 068°50'2 2.9
2018-Feb-21 16:29N 44°03' W 068°52'511.3
2018-Feb-21 16:00N 44°05' W 068°59'510.0
2018-Feb-21 15:27N 44°06' W 069°06'0 0.0
2018-Feb-21 14:58N 44°06' W 069°06'4 9.4
2018-Feb-21 14:29N 44°06' W 069°00'611.9
2018-Feb-21 14:00N 44°03' W 068°53'2 2.3
2018-Feb-21 13:07N 44°02' W 068°50'1 7.9
2018-Feb-21 12:59N 44°03' W 068°52'611.7
2018-Feb-21 12:30N 44°05' W 068°59'611.2
2018-Feb-21 12:00N 44°06' W 069°06'0 0.1
2018-Feb-21 11:30N 44°06' W 069°06'0 0.0
2018-Feb-20 22:57N 44°06' W 069°06'2 3.2
2018-Feb-20 22:29N 44°06' W 069°04'611.9
2018-Feb-20 21:58N 44°05' W 068°56'5 9.9
2018-Feb-20 21:30N 44°03' W 068°50'0 0.0
2018-Feb-20 20:56N 44°03' W 068°50'410.1
2018-Feb-20 20:30N 44°05' W 068°56'612.2
2018-Feb-20 20:00N 44°06' W 069°04'2 3.5
2018-Feb-20 19:30N 44°06' W 069°06'1 2.9
2018-Feb-20 19:00N 44°06' W 069°05'611.6
2018-Feb-20 18:29N 44°05' W 068°56'5 9.7
2018-Feb-20 17:59N 44°03' W 068°50'0 0.0
2018-Feb-20 17:30N 44°03' W 068°50'0 0.0
2018-Feb-20 16:58N 44°03' W 068°50'2 3.6
2018-Feb-20 16:29N 44°03' W 068°53'611.3
2018-Feb-20 16:00N 44°06' W 068°60'5 9.8
2018-Feb-20 15:29N 44°06' W 069°06'0 0.0
2018-Feb-20 15:00N 44°06' W 069°06'4 8.2
2018-Feb-20 14:29N 44°06' W 069°01'612.1
2018-Feb-20 14:00N 44°03' W 068°53'2 2.8
2018-Feb-20 13:13N 44°03' W 068°50'1 5.7
2018-Feb-20 12:59N 44°03' W 068°52'611.6
2018-Feb-20 12:30N 44°05' W 068°59'5 8.1
2018-Feb-20 11:50N 44°06' W 069°06'0 0.0
2018-Feb-19 22:51N 44°06' W 069°06'2 4.6
2018-Feb-19 22:30N 44°06' W 069°04'611.5
2018-Feb-19 21:58N 44°05' W 068°56'5 9.9
2018-Feb-19 21:30N 44°03' W 068°50'0 0.0
2018-Feb-19 20:57N 44°03' W 068°50'4 8.9
2018-Feb-19 20:30N 44°04' W 068°55'611.3
2018-Feb-19 20:00N 44°06' W 069°03'3 5.0
2018-Feb-19 19:28N 44°06' W 069°06'2 3.5
2018-Feb-19 19:00N 44°06' W 069°04'611.3
2018-Feb-19 18:29N 44°05' W 068°56'510.2
2018-Feb-19 18:00N 44°03' W 068°50'0 0.0
2018-Feb-19 17:30N 44°03' W 068°50'0 0.0
2018-Feb-19 16:58N 44°03' W 068°50'3 7.2
2018-Feb-19 16:30N 44°04' W 068°55'612.0
2018-Feb-19 16:00N 44°06' W 069°02'3 5.7
2018-Feb-19 15:29N 44°06' W 069°06'0 0.0
2018-Feb-19 14:57N 44°06' W 069°06'4 8.9
2018-Feb-19 14:30N 44°06' W 069°01'612.2
2018-Feb-19 13:58N 44°03' W 068°53'2 3.6
2018-Feb-19 13:27N 44°03' W 068°50'1 2.2
2018-Feb-19 13:00N 44°03' W 068°52'611.9
2018-Feb-19 12:30N 44°05' W 068°59'511.0
2018-Feb-19 12:00N 44°06' W 069°06'0 0.0
2018-Feb-18 21:30N 44°06' W 069°06'5 9.2
2018-Feb-18 20:59N 44°06' W 069°00'511.0
2018-Feb-18 20:30N 44°03' W 068°53'2 2.4
2018-Feb-18 19:36N 44°03' W 068°50'1 5.6
2018-Feb-18 19:30N 44°02' W 068°51'612.5
2018-Feb-18 19:00N 44°05' W 068°59'611.3
2018-Feb-18 18:30N 44°06' W 069°06'0 0.0
2018-Feb-18 18:00N 44°06' W 069°06'0 0.0
2018-Feb-18 15:07N 44°06' W 069°06'0 0.1
2018-Feb-18 14:58N 44°06' W 069°06'4 8.3
2018-Feb-18 14:30N 44°06' W 069°01'612.0
2018-Feb-18 13:59N 44°03' W 068°53'2 2.5
2018-Feb-18 13:08N 44°03' W 068°50'1 6.9
2018-Feb-18 13:00N 44°03' W 068°52'611.8
2018-Feb-18 12:30N 44°05' W 068°59'611.3
2018-Feb-18 12:00N 44°06' W 069°06'0 0.0
2018-Feb-17 22:46N 44°06' W 069°06'2 5.3
2018-Feb-17 22:28N 44°06' W 069°04'611.9
2018-Feb-17 21:59N 44°05' W 068°57'510.3
2018-Feb-17 21:30N 44°03' W 068°50'0 0.0
2018-Feb-17 20:59N 44°03' W 068°50'4 7.6
2018-Feb-17 20:30N 44°04' W 068°55'612.3
2018-Feb-17 19:59N 44°06' W 069°03'2 4.4
2018-Feb-17 19:29N 44°06' W 069°06'1 2.8
2018-Feb-17 18:59N 44°06' W 069°05'612.2
2018-Feb-17 18:29N 44°05' W 068°56'5 9.8
2018-Feb-17 18:00N 44°03' W 068°50'0 0.0
2018-Feb-17 17:29N 44°03' W 068°50'0 0.0
2018-Feb-17 16:58N 44°03' W 068°50'1 2.8
2018-Feb-17 16:30N 44°03' W 068°52'612.1
2018-Feb-17 16:00N 44°06' W 068°60'5 9.5
2018-Feb-17 15:29N 44°06' W 069°06'0 0.0
2018-Feb-17 15:00N 44°06' W 069°06'4 8.3
2018-Feb-17 14:30N 44°06' W 069°01'611.9
2018-Feb-17 13:59N 44°03' W 068°53'2 3.8
2018-Feb-17 13:27N 44°03' W 068°50'1 2.2
2018-Feb-17 12:59N 44°03' W 068°52'611.7
2018-Feb-17 12:30N 44°05' W 068°59'611.3
2018-Feb-17 12:00N 44°06' W 069°06'0 0.0
2018-Feb-16 22:42N 44°06' W 069°06'1 6.7
2018-Feb-16 22:29N 44°06' W 069°05'611.9
2018-Feb-16 22:00N 44°05' W 068°57'5 9.1
2018-Feb-16 21:26N 44°03' W 068°50'0 0.0
2018-Feb-16 20:58N 44°03' W 068°50'4 7.9
2018-Feb-16 20:30N 44°04' W 068°55'612.1
2018-Feb-16 20:00N 44°06' W 069°03'3 4.8
2018-Feb-16 19:29N 44°06' W 069°06'1 3.0
2018-Feb-16 19:00N 44°06' W 069°05'611.7
2018-Feb-16 18:30N 44°05' W 068°57'5 9.3
2018-Feb-16 17:58N 44°03' W 068°50'0 0.0
2018-Feb-16 17:30N 44°03' W 068°50'0 0.0
2018-Feb-16 17:00N 44°03' W 068°50'1 1.6
2018-Feb-16 16:30N 44°03' W 068°51'612.1
2018-Feb-16 16:00N 44°05' W 068°59'511.1
2018-Feb-16 15:30N 44°06' W 069°06'0 0.0
2018-Feb-16 15:00N 44°06' W 069°06'510.1
2018-Feb-16 14:29N 44°06' W 068°59'611.8
2018-Feb-16 14:00N 44°03' W 068°52'1 2.8
2018-Feb-16 13:28N 44°03' W 068°50'1 3.0
2018-Feb-16 12:59N 44°03' W 068°52'511.4
2018-Feb-16 12:30N 44°05' W 068°59'511.0
2018-Feb-16 12:00N 44°06' W 069°06'0 0.1
2018-Feb-16 11:28N 44°06' W 069°06'0 0.0
2018-Feb-16 10:58N 44°06' W 069°06'0 0.0
2018-Feb-16 10:29N 44°06' W 069°06'0 0.0
2018-Feb-16 10:00N 44°06' W 069°06'0 0.0
2018-Feb-16 09:29N 44°06' W 069°06'0 0.0
2018-Feb-16 08:58N 44°06' W 069°06'0 0.0
2018-Feb-16 08:28N 44°06' W 069°06'0 0.0
2018-Feb-16 07:58N 44°06' W 069°06'0 0.0
2018-Feb-16 07:29N 44°06' W 069°06'0 0.0
2018-Feb-16 07:00N 44°06' W 069°06'0 0.0
2018-Feb-16 06:30N 44°06' W 069°06'0 0.0
2018-Feb-16 05:59N 44°06' W 069°06'0 0.0
2018-Feb-16 05:29N 44°06' W 069°06'0 0.0
2018-Feb-16 04:55N 44°06' W 069°06'0 0.0
2018-Feb-16 04:28N 44°06' W 069°06'0 0.0
2018-Feb-16 04:00N 44°06' W 069°06'0 0.0
2018-Feb-16 03:30N 44°06' W 069°06'0 0.0
2018-Feb-16 03:00N 44°06' W 069°06'0 0.0
2018-Feb-16 02:30N 44°06' W 069°06'0 0.0
2018-Feb-16 01:59N 44°06' W 069°06'0 0.0
2018-Feb-16 01:27N 44°06' W 069°06'0 0.0
2018-Feb-16 00:59N 44°06' W 069°06'0 0.0
2018-Feb-16 00:27N 44°06' W 069°06'0 0.0
2018-Feb-15 23:58N 44°06' W 069°06'0 0.0
2018-Feb-15 23:30N 44°06' W 069°06'0 0.0
2018-Feb-15 22:58N 44°06' W 069°06'2 3.5
2018-Feb-15 22:29N 44°06' W 069°04'612.0
2018-Feb-15 22:00N 44°05' W 068°56'5 4.5
2018-Feb-15 20:55N 44°03' W 068°50'4 9.4
2018-Feb-15 20:30N 44°04' W 068°55'612.3
2018-Feb-15 20:00N 44°06' W 069°04'2 4.3
2018-Feb-15 19:30N 44°06' W 069°06'2 3.1
2018-Feb-15 19:00N 44°06' W 069°04'611.8
2018-Feb-15 18:29N 44°05' W 068°56'5 7.2
2018-Feb-15 17:50N 44°03' W 068°50'0 0.0
2018-Feb-15 17:27N 44°03' W 068°50'0 0.0
2018-Feb-15 16:59N 44°03' W 068°50'2 4.3
2018-Feb-15 16:30N 44°03' W 068°53'612.6
2018-Feb-15 16:00N 44°06' W 069°01'4 7.1
2018-Feb-15 15:27N 44°06' W 069°06'0 0.0
2018-Feb-15 14:58N 44°06' W 069°06'4 8.8
2018-Feb-15 14:30N 44°06' W 069°01'612.0
2018-Feb-15 14:00N 44°04' W 068°53'2 2.6
2018-Feb-15 13:10N 44°03' W 068°50'1 7.5
2018-Feb-15 12:59N 44°03' W 068°52'611.6
2018-Feb-15 12:30N 44°05' W 068°59'510.7
2018-Feb-15 12:00N 44°06' W 069°06'0 0.0
2018-Feb-14 22:48N 44°06' W 069°06'1 4.2
2018-Feb-14 22:30N 44°06' W 069°05'612.1
2018-Feb-14 22:00N 44°05' W 068°57'5 4.5
2018-Feb-14 20:52N 44°03' W 068°50'4 9.7
2018-Feb-14 20:30N 44°04' W 068°55'612.6
2018-Feb-14 19:59N 44°06' W 069°03'2 4.2
2018-Feb-14 19:27N 44°06' W 069°06'2 4.7
2018-Feb-14 19:00N 44°06' W 069°04'611.2
2018-Feb-14 18:30N 44°05' W 068°56'5 4.5
2018-Feb-14 17:29N 44°03' W 068°50'0 0.0
2018-Feb-14 17:00N 44°03' W 068°50'1 2.9
2018-Feb-14 16:29N 44°03' W 068°52'611.3
2018-Feb-14 15:58N 44°05' W 069°00'510.5
2018-Feb-14 15:30N 44°06' W 069°06'1 2.3
2018-Feb-14 15:00N 44°06' W 069°05'510.3
2018-Feb-14 14:30N 44°05' W 068°58'510.5
2018-Feb-14 13:59N 44°03' W 068°52'1 1.6
2018-Feb-14 13:27N 44°03' W 068°50'1 2.4
2018-Feb-14 12:59N 44°03' W 068°52'611.6
2018-Feb-14 12:29N 44°06' W 068°59'510.4
2018-Feb-14 11:58N 44°06' W 069°06'0 0.0
2018-Feb-13 22:50N 44°06' W 069°06'  
Track history (hours):
 
Tides and Currents Weather Stations Pressure Air Temp Water Temp Dewpoint Dewpoint Depression Visibility Wind Speed Wind Dir Waves Ship Positions

Capt E. Frank Thompson

Owner: Maine Dept. of Transportation/Ferry Service, Rockland, ME. More information available from US FCC via Universal Licensing System and Coast Guard Vessel Documentation Center.

Last reported at 2018-Feb-23 22:42 UTC. Time now 2018-Feb-24 00:41 UTC.
Position N 44°06' W 069°06'.

Length 47 m.

Type: Passenger vessel. MMSI: 367519240.

Date/timePositionNaut miles runAvg speedWind from/ knotsBaromVisibWave heightAir tempDewpointWater temp
2018-Feb-23 22:42N 44°06' W 069°06'1 6.9
2018-Feb-23 22:29N 44°06' W 069°04'612.0
2018-Feb-23 22:01N 44°05' W 068°57'5 9.9
2018-Feb-23 21:29N 44°03' W 068°50'0 0.0
2018-Feb-23 21:00N 44°03' W 068°50'4 8.1
2018-Feb-23 20:30N 44°04' W 068°55'612.0
2018-Feb-23 20:00N 44°06' W 069°03'2 4.4
2018-Feb-23 19:29N 44°06' W 069°06'1 1.4
2018-Feb-23 19:00N 44°06' W 069°06'612.3
2018-Feb-23 18:30N 44°05' W 068°57'510.9
2018-Feb-23 18:00N 44°03' W 068°50'0 0.0
2018-Feb-23 17:30N 44°03' W 068°50'0 0.0
2018-Feb-23 17:00N 44°03' W 068°50'1 1.8
2018-Feb-23 16:30N 44°03' W 068°52'611.6
2018-Feb-23 16:00N 44°05' W 068°59'611.6
2018-Feb-23 15:30N 44°06' W 069°06'0 0.0
2018-Feb-23 14:59N 44°06' W 069°06'4 9.0
2018-Feb-23 14:29N 44°06' W 069°00'611.5
2018-Feb-23 14:00N 44°03' W 068°53'2 3.9
2018-Feb-23 13:27N 44°03' W 068°50'1 1.6
2018-Feb-23 13:00N 44°03' W 068°51'611.7
2018-Feb-23 12:30N 44°05' W 068°59'611.5
2018-Feb-23 12:00N 44°06' W 069°06'0 0.0
2018-Feb-22 22:42N 44°06' W 069°06'1 5.7
2018-Feb-22 22:31N 44°06' W 069°05'611.9
2018-Feb-22 22:00N 44°05' W 068°57'510.3
2018-Feb-22 21:30N 44°03' W 068°50'0 0.0
2018-Feb-22 20:59N 44°03' W 068°50'510.6
2018-Feb-22 20:30N 44°05' W 068°57'612.4
2018-Feb-22 20:00N 44°06' W 069°05'1 2.1
2018-Feb-22 19:30N 44°06' W 069°06'1 1.7
2018-Feb-22 19:00N 44°06' W 069°05'612.2
2018-Feb-22 18:30N 44°05' W 068°57'5 3.0
2018-Feb-22 16:42N 44°03' W 068°50'2 9.6
2018-Feb-22 16:30N 44°03' W 068°53'611.5
2018-Feb-22 16:00N 44°06' W 068°60'5 9.1
2018-Feb-22 15:29N 44°06' W 069°06'0 0.0
2018-Feb-22 14:59N 44°06' W 069°06'4 8.0
2018-Feb-22 14:29N 44°06' W 069°01'612.3
2018-Feb-22 14:00N 44°04' W 068°53'2 2.3
2018-Feb-22 13:03N 44°02' W 068°51'113.6
2018-Feb-22 12:59N 44°03' W 068°52'611.8
2018-Feb-22 12:30N 44°05' W 068°59'511.0
2018-Feb-22 12:00N 44°06' W 069°06'0 0.1
2018-Feb-22 11:31N 44°06' W 069°06'0 0.0
2018-Feb-21 22:43N 44°06' W 069°06'2 8.1
2018-Feb-21 22:29N 44°06' W 069°04'611.4
2018-Feb-21 22:00N 44°05' W 068°56'5 4.1
2018-Feb-21 20:48N 44°02' W 068°51'411.9
2018-Feb-21 20:30N 44°04' W 068°55'612.3
2018-Feb-21 19:59N 44°06' W 069°03'2 4.6
2018-Feb-21 19:28N 44°06' W 069°06'1 3.2
2018-Feb-21 19:00N 44°06' W 069°04'611.8
2018-Feb-21 18:30N 44°05' W 068°56'5 7.3
2018-Feb-21 17:49N 44°03' W 068°50'0 0.0
2018-Feb-21 17:29N 44°03' W 068°50'0 0.0
2018-Feb-21 17:00N 44°03' W 068°50'2 2.9
2018-Feb-21 16:29N 44°03' W 068°52'511.3
2018-Feb-21 16:00N 44°05' W 068°59'510.0
2018-Feb-21 15:27N 44°06' W 069°06'0 0.0
2018-Feb-21 14:58N 44°06' W 069°06'4 9.4
2018-Feb-21 14:29N 44°06' W 069°00'611.9
2018-Feb-21 14:00N 44°03' W 068°53'2 2.3
2018-Feb-21 13:07N 44°02' W 068°50'1 7.9
2018-Feb-21 12:59N 44°03' W 068°52'611.7
2018-Feb-21 12:30N 44°05' W 068°59'611.2
2018-Feb-21 12:00N 44°06' W 069°06'0 0.1
2018-Feb-21 11:30N 44°06' W 069°06'0 0.0
2018-Feb-20 22:57N 44°06' W 069°06'2 3.2
2018-Feb-20 22:29N 44°06' W 069°04'611.9
2018-Feb-20 21:58N 44°05' W 068°56'5 9.9
2018-Feb-20 21:30N 44°03' W 068°50'0 0.0
2018-Feb-20 20:56N 44°03' W 068°50'410.1
2018-Feb-20 20:30N 44°05' W 068°56'612.2
2018-Feb-20 20:00N 44°06' W 069°04'2 3.5
2018-Feb-20 19:30N 44°06' W 069°06'1 2.9
2018-Feb-20 19:00N 44°06' W 069°05'611.6
2018-Feb-20 18:29N 44°05' W 068°56'5 9.7
2018-Feb-20 17:59N 44°03' W 068°50'0 0.0
2018-Feb-20 17:30N 44°03' W 068°50'0 0.0
2018-Feb-20 16:58N 44°03' W 068°50'2 3.6
2018-Feb-20 16:29N 44°03' W 068°53'611.3
2018-Feb-20 16:00N 44°06' W 068°60'5 9.8
2018-Feb-20 15:29N 44°06' W 069°06'0 0.0
2018-Feb-20 15:00N 44°06' W 069°06'4 8.2
2018-Feb-20 14:29N 44°06' W 069°01'612.1
2018-Feb-20 14:00N 44°03' W 068°53'2 2.8
2018-Feb-20 13:13N 44°03' W 068°50'1 5.7
2018-Feb-20 12:59N 44°03' W 068°52'611.6
2018-Feb-20 12:30N 44°05' W 068°59'5 8.1
2018-Feb-20 11:50N 44°06' W 069°06'0 0.0
2018-Feb-19 22:51N 44°06' W 069°06'2 4.6
2018-Feb-19 22:30N 44°06' W 069°04'611.5
2018-Feb-19 21:58N 44°05' W 068°56'5 9.9
2018-Feb-19 21:30N 44°03' W 068°50'0 0.0
2018-Feb-19 20:57N 44°03' W 068°50'4 8.9
2018-Feb-19 20:30N 44°04' W 068°55'611.3
2018-Feb-19 20:00N 44°06' W 069°03'3 5.0
2018-Feb-19 19:28N 44°06' W 069°06'2 3.5
2018-Feb-19 19:00N 44°06' W 069°04'611.3
2018-Feb-19 18:29N 44°05' W 068°56'510.2
2018-Feb-19 18:00N 44°03' W 068°50'0 0.0
2018-Feb-19 17:30N 44°03' W 068°50'0 0.0
2018-Feb-19 16:58N 44°03' W 068°50'3 7.2
2018-Feb-19 16:30N 44°04' W 068°55'612.0
2018-Feb-19 16:00N 44°06' W 069°02'3 5.7
2018-Feb-19 15:29N 44°06' W 069°06'0 0.0
2018-Feb-19 14:57N 44°06' W 069°06'4 8.9
2018-Feb-19 14:30N 44°06' W 069°01'612.2
2018-Feb-19 13:58N 44°03' W 068°53'2 3.6
2018-Feb-19 13:27N 44°03' W 068°50'1 2.2
2018-Feb-19 13:00N 44°03' W 068°52'611.9
2018-Feb-19 12:30N 44°05' W 068°59'511.0
2018-Feb-19 12:00N 44°06' W 069°06'0 0.0
2018-Feb-18 21:30N 44°06' W 069°06'5 9.2
2018-Feb-18 20:59N 44°06' W 069°00'511.0
2018-Feb-18 20:30N 44°03' W 068°53'2 2.4
2018-Feb-18 19:36N 44°03' W 068°50'1 5.6
2018-Feb-18 19:30N 44°02' W 068°51'612.5
2018-Feb-18 19:00N 44°05' W 068°59'611.3
2018-Feb-18 18:30N 44°06' W 069°06'0 0.0
2018-Feb-18 18:00N 44°06' W 069°06'0 0.0
2018-Feb-18 15:07N 44°06' W 069°06'0 0.1
2018-Feb-18 14:58N 44°06' W 069°06'4 8.3
2018-Feb-18 14:30N 44°06' W 069°01'612.0
2018-Feb-18 13:59N 44°03' W 068°53'2 2.5
2018-Feb-18 13:08N 44°03' W 068°50'1 6.9
2018-Feb-18 13:00N 44°03' W 068°52'611.8
2018-Feb-18 12:30N 44°05' W 068°59'611.3
2018-Feb-18 12:00N 44°06' W 069°06'0 0.0
2018-Feb-17 22:46N 44°06' W 069°06'2 5.3
2018-Feb-17 22:28N 44°06' W 069°04'611.9
2018-Feb-17 21:59N 44°05' W 068°57'510.3
2018-Feb-17 21:30N 44°03' W 068°50'0 0.0
2018-Feb-17 20:59N 44°03' W 068°50'4 7.6
2018-Feb-17 20:30N 44°04' W 068°55'612.3
2018-Feb-17 19:59N 44°06' W 069°03'2 4.4
2018-Feb-17 19:29N 44°06' W 069°06'1 2.8
2018-Feb-17 18:59N 44°06' W 069°05'612.2
2018-Feb-17 18:29N 44°05' W 068°56'5 9.8
2018-Feb-17 18:00N 44°03' W 068°50'0 0.0
2018-Feb-17 17:29N 44°03' W 068°50'0 0.0
2018-Feb-17 16:58N 44°03' W 068°50'1 2.8
2018-Feb-17 16:30N 44°03' W 068°52'612.1
2018-Feb-17 16:00N 44°06' W 068°60'5 9.5
2018-Feb-17 15:29N 44°06' W 069°06'0 0.0
2018-Feb-17 15:00N 44°06' W 069°06'4 8.3
2018-Feb-17 14:30N 44°06' W 069°01'611.9
2018-Feb-17 13:59N 44°03' W 068°53'2 3.8
2018-Feb-17 13:27N 44°03' W 068°50'1 2.2
2018-Feb-17 12:59N 44°03' W 068°52'611.7
2018-Feb-17 12:30N 44°05' W 068°59'611.3
2018-Feb-17 12:00N 44°06' W 069°06'0 0.0
2018-Feb-16 22:42N 44°06' W 069°06'1 6.7
2018-Feb-16 22:29N 44°06' W 069°05'611.9
2018-Feb-16 22:00N 44°05' W 068°57'5 9.1
2018-Feb-16 21:26N 44°03' W 068°50'0 0.0
2018-Feb-16 20:58N 44°03' W 068°50'4 7.9
2018-Feb-16 20:30N 44°04' W 068°55'612.1
2018-Feb-16 20:00N 44°06' W 069°03'3 4.8
2018-Feb-16 19:29N 44°06' W 069°06'1 3.0
2018-Feb-16 19:00N 44°06' W 069°05'611.7
2018-Feb-16 18:30N 44°05' W 068°57'5 9.3
2018-Feb-16 17:58N 44°03' W 068°50'0 0.0
2018-Feb-16 17:30N 44°03' W 068°50'0 0.0
2018-Feb-16 17:00N 44°03' W 068°50'1 1.6
2018-Feb-16 16:30N 44°03' W 068°51'612.1
2018-Feb-16 16:00N 44°05' W 068°59'511.1
2018-Feb-16 15:30N 44°06' W 069°06'0 0.0
2018-Feb-16 15:00N 44°06' W 069°06'510.1
2018-Feb-16 14:29N 44°06' W 068°59'611.8
2018-Feb-16 14:00N 44°03' W 068°52'1 2.8
2018-Feb-16 13:28N 44°03' W 068°50'1 3.0
2018-Feb-16 12:59N 44°03' W 068°52'511.4
2018-Feb-16 12:30N 44°05' W 068°59'511.0
2018-Feb-16 12:00N 44°06' W 069°06'0 0.1
2018-Feb-16 11:28N 44°06' W 069°06'0 0.0
2018-Feb-16 10:58N 44°06' W 069°06'0 0.0
2018-Feb-16 10:29N 44°06' W 069°06'0 0.0
2018-Feb-16 10:00N 44°06' W 069°06'0 0.0
2018-Feb-16 09:29N 44°06' W 069°06'0 0.0
2018-Feb-16 08:58N 44°06' W 069°06'0 0.0
2018-Feb-16 08:28N 44°06' W 069°06'0 0.0
2018-Feb-16 07:58N 44°06' W 069°06'0 0.0
2018-Feb-16 07:29N 44°06' W 069°06'0 0.0
2018-Feb-16 07:00N 44°06' W 069°06'0 0.0
2018-Feb-16 06:30N 44°06' W 069°06'0 0.0
2018-Feb-16 05:59N 44°06' W 069°06'0 0.0
2018-Feb-16 05:29N 44°06' W 069°06'0 0.0
2018-Feb-16 04:55N 44°06' W 069°06'0 0.0
2018-Feb-16 04:28N 44°06' W 069°06'0 0.0
2018-Feb-16 04:00N 44°06' W 069°06'0 0.0
2018-Feb-16 03:30N 44°06' W 069°06'0 0.0
2018-Feb-16 03:00N 44°06' W 069°06'0 0.0
2018-Feb-16 02:30N 44°06' W 069°06'0 0.0
2018-Feb-16 01:59N 44°06' W 069°06'0 0.0
2018-Feb-16 01:27N 44°06' W 069°06'0 0.0
2018-Feb-16 00:59N 44°06' W 069°06'0 0.0
2018-Feb-16 00:27N 44°06' W 069°06'0 0.0
2018-Feb-15 23:58N 44°06' W 069°06'0 0.0
2018-Feb-15 23:30N 44°06' W 069°06'0 0.0
2018-Feb-15 22:58N 44°06' W 069°06'2 3.5
2018-Feb-15 22:29N 44°06' W 069°04'612.0
2018-Feb-15 22:00N 44°05' W 068°56'5 4.5
2018-Feb-15 20:55N 44°03' W 068°50'4 9.4
2018-Feb-15 20:30N 44°04' W 068°55'612.3
2018-Feb-15 20:00N 44°06' W 069°04'2 4.3
2018-Feb-15 19:30N 44°06' W 069°06'2 3.1
2018-Feb-15 19:00N 44°06' W 069°04'611.8
2018-Feb-15 18:29N 44°05' W 068°56'5 7.2
2018-Feb-15 17:50N 44°03' W 068°50'0 0.0
2018-Feb-15 17:27N 44°03' W 068°50'0 0.0
2018-Feb-15 16:59N 44°03' W 068°50'2 4.3
2018-Feb-15 16:30N 44°03' W 068°53'612.6
2018-Feb-15 16:00N 44°06' W 069°01'4 7.1
2018-Feb-15 15:27N 44°06' W 069°06'0 0.0
2018-Feb-15 14:58N 44°06' W 069°06'4 8.8
2018-Feb-15 14:30N 44°06' W 069°01'612.0
2018-Feb-15 14:00N 44°04' W 068°53'2 2.6
2018-Feb-15 13:10N 44°03' W 068°50'1 7.5
2018-Feb-15 12:59N 44°03' W 068°52'611.6
2018-Feb-15 12:30N 44°05' W 068°59'510.7
2018-Feb-15 12:00N 44°06' W 069°06'0 0.0
2018-Feb-14 22:48N 44°06' W 069°06'1 4.2
2018-Feb-14 22:30N 44°06' W 069°05'612.1
2018-Feb-14 22:00N 44°05' W 068°57'5 4.5
2018-Feb-14 20:52N 44°03' W 068°50'4 9.7
2018-Feb-14 20:30N 44°04' W 068°55'612.6
2018-Feb-14 19:59N 44°06' W 069°03'2 4.2
2018-Feb-14 19:27N 44°06' W 069°06'2 4.7
2018-Feb-14 19:00N 44°06' W 069°04'611.2
2018-Feb-14 18:30N 44°05' W 068°56'5 4.5
2018-Feb-14 17:29N 44°03' W 068°50'0 0.0
2018-Feb-14 17:00N 44°03' W 068°50'1 2.9
2018-Feb-14 16:29N 44°03' W 068°52'611.3
2018-Feb-14 15:58N 44°05' W 069°00'510.5
2018-Feb-14 15:30N 44°06' W 069°06'1 2.3
2018-Feb-14 15:00N 44°06' W 069°05'510.3
2018-Feb-14 14:30N 44°05' W 068°58'510.5
2018-Feb-14 13:59N 44°03' W 068°52'1 1.6
2018-Feb-14 13:27N 44°03' W 068°50'1 2.4
2018-Feb-14 12:59N 44°03' W 068°52'611.6
2018-Feb-14 12:29N 44°06' W 068°59'510.4
2018-Feb-14 11:58N 44°06' W 069°06'0 0.0
2018-Feb-13 22:50N 44°06' W 069°06'  

Dump ship's entire track history